Time;durP1;ratioP1;P1;durP2;ratioP2;P2;SDS_P1;SDS_P2;PMS_P1;PMS_P2;Temp;Humidity;BMP_temperature;BMP_pressure;BME280_temperature;BME280_humidity;BME280_pressure;Samples;Min_cycle;Max_cycle;Signal;HPM_P1;HPM_P2
2022/10/14 00:01:14;;;;;;;48.57;25.47;;;13.00;99.90;;;;;;5036134;28;20556;-84
2022/10/14 00:03:40;;;;;;;36.33;30.90;;;13.00;99.90;;;;;;5035273;28;20242;-81
2022/10/14 00:06:08;;;;;;;42.93;34.83;;;13.00;99.90;;;;;;5042179;28;20182;-81
2022/10/14 00:08:33;;;;;;;58.13;51.63;;;13.00;99.90;;;;;;5057870;28;20198;-83
2022/10/14 00:11:04;;;;;;;72.50;55.43;;;13.00;99.90;;;;;;5049056;28;20175;-82
2022/10/14 00:13:30;;;;;;;44.10;39.33;;;13.00;99.90;;;;;;5034878;28;20222;-82
2022/10/14 00:15:56;;;;;;;30.17;22.33;;;13.00;99.90;;;;;;5036217;28;20187;-83
2022/10/14 00:18:22;;;;;;;24.73;22.23;;;13.00;99.90;;;;;;5034657;28;20686;-82
2022/10/14 00:20:55;;;;;;;23.67;20.60;;;13.10;99.90;;;;;;5035520;28;20183;-83
2022/10/14 00:23:21;;;;;;;31.20;22.77;;;13.00;99.90;;;;;;5045022;28;20219;-83
2022/10/14 00:25:47;;;;;;;34.83;20.03;;;13.00;99.90;;;;;;5038097;28;20178;-83
2022/10/14 00:28:13;;;;;;;32.87;18.57;;;13.00;99.90;;;;;;5035441;28;20211;-83
2022/10/14 00:30:38;;;;;;;41.03;26.77;;;13.00;99.90;;;;;;5037646;28;20213;-85
2022/10/14 00:33:06;;;;;;;36.00;32.20;;;13.00;99.90;;;;;;5039067;28;20344;-85
2022/10/14 00:35:32;;;;;;;32.23;26.27;;;13.00;99.90;;;;;;5041169;28;20185;-85
2022/10/14 00:37:58;;;;;;;41.80;26.83;;;13.00;99.90;;;;;;5037016;28;20187;-81
2022/10/14 00:40:25;;;;;;;101.10;94.03;;;13.00;99.90;;;;;;5036641;28;20683;-82
2022/10/14 00:42:51;;;;;;;46.20;42.00;;;13.10;99.90;;;;;;5035567;28;20680;-85
2022/10/14 00:45:22;;;;;;;47.50;43.50;;;13.00;99.90;;;;;;5039913;28;20206;-84
2022/10/14 00:47:51;;;;;;;37.90;34.27;;;13.10;99.90;;;;;;5038768;28;20179;-84
2022/10/14 00:50:18;;;;;;;25.00;20.97;;;13.00;99.90;;;;;;5037763;28;20658;-85
2022/10/14 00:52:45;;;;;;;38.93;34.60;;;13.10;99.90;;;;;;5038153;28;20202;-85
2022/10/14 00:55:15;;;;;;;39.20;36.07;;;13.00;99.90;;;;;;5038079;28;20277;-85
2022/10/14 00:57:41;;;;;;;48.33;44.80;;;13.00;99.90;;;;;;5037984;28;20191;-85
2022/10/14 01:00:09;;;;;;;57.53;53.07;;;13.00;99.90;;;;;;5037475;28;20186;-83
2022/10/14 01:02:35;;;;;;;36.47;31.63;;;13.00;99.90;;;;;;5037020;28;20215;-84
2022/10/14 01:05:03;;;;;;;60.27;55.30;;;13.00;99.90;;;;;;5037689;28;20378;-83
2022/10/14 01:07:38;;;;;;;86.33;79.67;;;13.00;99.90;;;;;;5035361;28;20202;-83
2022/10/14 01:10:36;;;;;;;52.90;48.63;;;13.00;99.90;;;;;;5043311;28;20183;-83
2022/10/14 01:13:28;;;;;;;61.17;42.33;;;13.00;99.90;;;;;;5032200;28;20245;-83
2022/10/14 01:16:34;;;;;;;107.90;96.60;;;13.00;99.90;;;;;;5037553;28;20179;-82
2022/10/14 01:19:35;;;;;;;127.80;119.10;;;13.00;99.90;;;;;;5022251;28;20285;-85
2022/10/14 01:22:18;;;;;;;68.57;61.57;;;13.00;99.90;;;;;;5017964;28;20195;-84
2022/10/14 01:25:02;;;;;;;87.50;81.43;;;13.00;99.90;;;;;;5021324;28;20195;-85
2022/10/14 01:27:28;;;;;;;68.83;63.63;;;13.00;99.90;;;;;;5052689;28;20175;-84
2022/10/14 01:30:06;;;;;;;39.53;35.53;;;13.00;99.90;;;;;;5050022;28;20199;-84
2022/10/14 01:32:51;;;;;;;50.03;38.23;;;13.00;99.90;;;;;;5037583;28;20198;-84
2022/10/14 01:35:52;;;;;;;58.00;31.40;;;13.00;99.90;;;;;;5036692;28;20272;-84
2022/10/14 01:38:33;;;;;;;103.20;95.90;;;13.00;99.90;;;;;;5035448;28;20226;-83
2022/10/14 01:41:13;;;;;;;154.07;144.60;;;13.00;99.90;;;;;;5037923;28;20250;-84
2022/10/14 01:43:40;;;;;;;93.10;87.00;;;13.00;99.90;;;;;;5037349;28;20699;-84
2022/10/14 01:46:06;;;;;;;79.90;74.70;;;13.00;99.90;;;;;;5034458;28;20190;-83
2022/10/14 01:48:35;;;;;;;48.87;44.97;;;13.00;99.90;;;;;;5034463;28;20183;-83
2022/10/14 01:51:07;;;;;;;96.77;90.07;;;12.90;99.90;;;;;;5033139;28;20182;-83
2022/10/14 01:53:40;;;;;;;58.67;53.17;;;13.00;99.90;;;;;;5034124;28;20234;-83
2022/10/14 01:56:08;;;;;;;73.40;58.60;;;13.00;99.90;;;;;;5033885;28;20187;-84
2022/10/14 01:58:36;;;;;;;83.43;73.63;;;12.90;99.90;;;;;;5038437;28;20179;-83
2022/10/14 02:01:04;;;;;;;82.67;74.93;;;12.90;99.90;;;;;;5042328;28;20197;-83
2022/10/14 02:03:43;;;;;;;59.40;43.57;;;13.00;99.90;;;;;;5035320;28;20214;-82
2022/10/14 02:06:28;;;;;;;70.70;59.90;;;12.90;99.90;;;;;;5015036;28;20219;-83
2022/10/14 02:09:19;;;;;;;131.37;121.00;;;12.90;99.90;;;;;;5016271;28;20179;-83
2022/10/14 02:12:03;;;;;;;123.33;114.47;;;13.00;99.90;;;;;;5019511;28;20243;-83
2022/10/14 02:14:49;;;;;;;88.93;81.17;;;13.00;99.90;;;;;;5023204;28;20545;-83
2022/10/14 02:17:27;;;;;;;44.07;39.77;;;13.00;99.90;;;;;;5020944;28;20186;-82
2022/10/14 02:20:07;;;;;;;49.93;39.30;;;13.00;99.90;;;;;;5038602;28;20187;-81
2022/10/14 02:22:38;;;;;;;61.10;55.60;;;13.00;99.90;;;;;;5034187;28;20215;-82
2022/10/14 02:25:18;;;;;;;73.03;66.97;;;13.00;99.90;;;;;;5040928;28;20164;-82
2022/10/14 02:27:46;;;;;;;71.03;65.63;;;13.00;99.90;;;;;;5022446;28;20197;-81
2022/10/14 02:30:13;;;;;;;72.60;67.00;;;13.00;99.90;;;;;;5018832;28;20180;-82
2022/10/14 02:32:40;;;;;;;63.53;58.47;;;13.00;99.90;;;;;;5023203;28;20581;-82
2022/10/14 02:35:09;;;;;;;51.23;47.20;;;13.00;99.90;;;;;;5038897;28;20229;-82
2022/10/14 02:37:36;;;;;;;81.43;76.07;;;12.90;99.90;;;;;;5039707;28;20270;-82
2022/10/14 02:40:10;;;;;;;85.93;80.40;;;12.90;99.90;;;;;;5037698;28;20750;-82
2022/10/14 02:42:36;;;;;;;100.30;93.87;;;12.90;99.90;;;;;;5040415;28;20211;-84
2022/10/14 02:45:02;;;;;;;102.27;95.57;;;12.90;99.90;;;;;;5041854;28;20529;-85
2022/10/14 02:47:28;;;;;;;94.73;88.53;;;12.90;99.90;;;;;;5040258;28;20205;-84
2022/10/14 02:49:54;;;;;;;84.90;79.13;;;13.00;99.90;;;;;;5041464;28;20651;-86
2022/10/14 02:52:20;;;;;;;104.07;97.33;;;13.00;99.90;;;;;;5045075;28;20284;-85
2022/10/14 02:54:45;;;;;;;81.27;75.87;;;13.00;99.90;;;;;;5044176;28;20187;-85
2022/10/14 02:57:11;;;;;;;36.47;33.30;;;12.90;99.90;;;;;;5038089;28;20183;-83
2022/10/14 02:59:38;;;;;;;28.33;25.90;;;12.90;99.90;;;;;;5037814;28;20179;-83
2022/10/14 03:02:06;;;;;;;37.17;34.20;;;12.90;99.90;;;;;;5038848;28;20229;-83
2022/10/14 03:04:32;;;;;;;55.93;51.43;;;12.90;99.90;;;;;;5037116;28;20244;-83
2022/10/14 03:06:58;;;;;;;56.70;52.63;;;12.90;99.90;;;;;;5037815;28;20198;-81
2022/10/14 03:09:23;;;;;;;65.93;61.63;;;12.90;99.90;;;;;;5046270;28;20274;-83
2022/10/14 03:11:49;;;;;;;49.47;45.97;;;13.00;99.90;;;;;;5058320;28;20270;-82
2022/10/14 03:14:15;;;;;;;46.80;43.30;;;12.90;99.90;;;;;;5053057;28;20210;-83
2022/10/14 03:16:41;;;;;;;58.83;54.63;;;12.90;99.90;;;;;;5048117;28;20183;-81
2022/10/14 03:19:06;;;;;;;35.17;32.20;;;13.00;99.90;;;;;;5048656;28;20205;-84
2022/10/14 03:21:32;;;;;;;24.13;21.73;;;13.00;99.90;;;;;;5041859;28;20183;-82
2022/10/14 03:24:00;;;;;;;23.97;21.87;;;12.90;99.90;;;;;;5041870;28;20219;-84
2022/10/14 03:26:27;;;;;;;48.37;44.70;;;13.00;99.90;;;;;;5041483;28;20179;-84
2022/10/14 03:28:52;;;;;;;30.83;28.40;;;12.90;99.90;;;;;;5038973;28;20198;-83
2022/10/14 03:31:18;;;;;;;34.03;31.63;;;12.90;99.90;;;;;;5050076;28;20175;-81
2022/10/14 03:33:44;;;;;;;32.67;30.10;;;12.90;99.90;;;;;;5055131;28;20474;-82
2022/10/14 03:36:11;;;;;;;45.30;41.87;;;12.90;99.90;;;;;;5045067;28;20190;-81
2022/10/14 03:38:36;;;;;;;31.40;28.97;;;12.90;99.90;;;;;;5039425;28;20821;-82
2022/10/14 03:41:02;;;;;;;56.00;52.50;;;12.90;99.90;;;;;;5036848;28;20190;-82
2022/10/14 03:43:28;;;;;;;81.40;76.37;;;12.90;99.90;;;;;;5038328;28;20702;-82
2022/10/14 03:45:54;;;;;;;83.80;78.70;;;12.90;99.90;;;;;;5046444;28;20185;-81
2022/10/14 03:48:20;;;;;;;59.37;55.50;;;12.90;99.90;;;;;;5053708;28;20178;-81
2022/10/14 03:50:46;;;;;;;41.20;38.13;;;12.90;99.90;;;;;;5045155;28;20598;-85
2022/10/14 03:53:13;;;;;;;78.40;73.23;;;12.90;99.90;;;;;;5036959;28;20253;-82
2022/10/14 03:55:39;;;;;;;79.50;74.57;;;12.90;99.90;;;;;;5022614;28;20191;-82
2022/10/14 03:58:05;;;;;;;86.20;80.93;;;12.90;99.90;;;;;;5036804;28;20221;-84
2022/10/14 04:00:31;;;;;;;85.20;80.03;;;12.90;99.90;;;;;;5038752;28;20187;-82
2022/10/14 04:02:57;;;;;;;46.43;42.93;;;12.80;99.90;;;;;;5032298;28;20215;-81
2022/10/14 04:05:23;;;;;;;24.87;22.60;;;12.80;99.90;;;;;;5015543;28;20758;-83
2022/10/14 04:07:49;;;;;;;23.27;20.97;;;12.80;99.90;;;;;;5014556;28;20187;-84
2022/10/14 04:10:14;;;;;;;58.57;54.73;;;12.80;99.90;;;;;;5017959;28;20202;-72
2022/10/14 04:12:42;;;;;;;98.73;92.60;;;12.80;99.90;;;;;;5031564;28;20225;-72
2022/10/14 04:15:09;;;;;;;66.43;62.00;;;12.80;99.90;;;;;;5025184;28;20191;-71
2022/10/14 04:17:35;;;;;;;63.93;59.47;;;12.80;99.90;;;;;;5030442;28;20245;-72
2022/10/14 04:20:01;;;;;;;67.43;62.93;;;12.70;99.90;;;;;;5031722;28;20240;-72
2022/10/14 04:22:28;;;;;;;54.57;50.87;;;12.70;99.90;;;;;;5031348;28;20201;-70
2022/10/14 04:24:54;;;;;;;61.97;57.97;;;12.80;99.90;;;;;;5031196;28;20179;-72
2022/10/14 04:27:20;;;;;;;56.53;52.87;;;12.70;99.90;;;;;;5031531;28;20177;-71
2022/10/14 04:29:46;;;;;;;45.57;42.03;;;12.70;99.90;;;;;;5030114;28;20274;-72
2022/10/14 04:32:12;;;;;;;43.37;39.90;;;12.70;99.90;;;;;;5030371;28;20262;-72
2022/10/14 04:34:37;;;;;;;52.50;48.90;;;12.70;99.90;;;;;;5031274;28;20183;-80
2022/10/14 04:37:03;;;;;;;69.13;64.70;;;12.70;99.90;;;;;;5030794;28;20218;-77
2022/10/14 04:39:29;;;;;;;67.50;62.90;;;12.60;99.90;;;;;;5030270;28;20229;-78
2022/10/14 04:41:55;;;;;;;28.43;26.03;;;12.60;99.90;;;;;;5032009;28;20593;-77
2022/10/14 04:44:21;;;;;;;22.00;19.63;;;12.60;99.90;;;;;;5030597;28;20214;-78
2022/10/14 04:46:46;;;;;;;22.47;20.07;;;12.60;99.90;;;;;;5031954;28;20198;-77
2022/10/14 04:49:13;;;;;;;23.50;21.50;;;12.50;99.90;;;;;;5032312;28;20187;-78
2022/10/14 04:51:39;;;;;;;28.23;25.87;;;12.50;99.90;;;;;;5032516;28;20284;-78
2022/10/14 04:54:04;;;;;;;28.77;26.20;;;12.50;99.90;;;;;;5032352;28;20687;-77
2022/10/14 04:56:30;;;;;;;30.40;27.40;;;12.50;99.90;;;;;;5043146;28;20556;-76
2022/10/14 04:58:57;;;;;;;55.73;51.93;;;12.50;99.90;;;;;;5038278;28;20258;-78
2022/10/14 05:01:23;;;;;;;56.57;52.73;;;12.60;99.90;;;;;;5033833;28;20609;-78
2022/10/14 05:03:50;;;;;;;30.13;27.03;;;12.60;99.90;;;;;;5032176;28;20249;-77
2022/10/14 05:06:16;;;;;;;19.40;17.40;;;12.50;99.90;;;;;;5030406;28;20179;-77
2022/10/14 05:08:42;;;;;;;16.90;14.50;;;12.50;99.90;;;;;;5030086;28;20716;-78
2022/10/14 05:11:08;;;;;;;19.20;17.33;;;12.50;99.90;;;;;;5031967;28;20194;-78
2022/10/14 05:13:34;;;;;;;29.03;26.43;;;12.60;99.90;;;;;;5032734;28;20243;-78
2022/10/14 05:16:01;;;;;;;33.57;30.80;;;12.60;99.90;;;;;;5032369;28;20226;-78
2022/10/14 05:18:27;;;;;;;51.27;47.67;;;12.60;99.90;;;;;;5030316;28;20179;-78
2022/10/14 05:20:53;;;;;;;70.13;65.60;;;12.60;99.90;;;;;;5031536;28;20226;-78
2022/10/14 05:23:19;;;;;;;67.20;62.90;;;12.50;99.90;;;;;;5031465;28;20548;-77
2022/10/14 05:25:45;;;;;;;69.53;65.00;;;12.50;99.90;;;;;;5032119;28;20189;-78
2022/10/14 05:28:10;;;;;;;65.83;60.97;;;12.50;99.90;;;;;;5029264;28;20193;-78
2022/10/14 05:30:36;;;;;;;69.50;65.07;;;12.50;99.90;;;;;;5030086;28;20621;-78
2022/10/14 05:33:03;;;;;;;61.47;56.93;;;12.50;99.90;;;;;;5031529;28;20229;-78
2022/10/14 05:35:29;;;;;;;69.57;65.33;;;12.50;99.90;;;;;;5031586;28;20270;-78
2022/10/14 05:37:56;;;;;;;55.07;51.13;;;12.50;99.90;;;;;;5028864;28;20716;-72
2022/10/14 05:40:22;;;;;;;53.73;49.87;;;12.50;99.90;;;;;;5028913;28;20228;-72
2022/10/14 05:42:48;;;;;;;55.63;51.63;;;12.60;99.90;;;;;;5029849;28;20841;-72
2022/10/14 05:45:13;;;;;;;55.93;51.70;;;12.60;99.90;;;;;;5030045;28;20317;-72
2022/10/14 05:47:42;;;;;;;57.73;53.77;;;12.60;99.90;;;;;;5028680;28;20187;-71
2022/10/14 05:50:08;;;;;;;59.90;56.03;;;12.60;99.90;;;;;;5030170;28;20201;-72
2022/10/14 05:52:34;;;;;;;48.20;44.57;;;12.60;99.90;;;;;;5029315;28;20218;-71
2022/10/14 05:55:00;;;;;;;58.63;54.73;;;12.60;99.90;;;;;;5030343;28;20626;-72
2022/10/14 05:57:26;;;;;;;58.00;53.33;;;12.60;99.90;;;;;;5028310;28;20209;-71
2022/10/14 05:59:52;;;;;;;56.77;52.43;;;12.60;99.90;;;;;;5029503;28;20179;-77
2022/10/14 06:02:18;;;;;;;59.60;55.50;;;12.60;99.90;;;;;;5032396;28;20822;-76
2022/10/14 06:04:44;;;;;;;36.33;33.03;;;12.60;99.90;;;;;;5043838;28;20205;-77
2022/10/14 06:07:10;;;;;;;38.17;35.37;;;12.60;99.90;;;;;;5041615;28;20189;-76
2022/10/14 06:09:37;;;;;;;41.33;38.17;;;12.70;99.90;;;;;;5033271;28;20182;-77
2022/10/14 06:12:03;;;;;;;41.20;38.40;;;12.70;99.90;;;;;;5029567;28;20187;-76
2022/10/14 06:14:30;;;;;;;46.03;42.80;;;12.80;99.90;;;;;;5028521;28;20650;-77
2022/10/14 06:16:56;;;;;;;57.10;53.13;;;12.80;99.90;;;;;;5030777;28;20205;-77
2022/10/14 06:19:21;;;;;;;63.50;59.40;;;12.80;99.90;;;;;;5030871;28;20643;-77
2022/10/14 06:21:47;;;;;;;66.83;62.23;;;12.90;99.90;;;;;;5009622;28;20191;-77
2022/10/14 06:24:13;;;;;;;66.50;61.93;;;12.90;99.90;;;;;;5026911;28;20632;-78
2022/10/14 06:26:39;;;;;;;58.47;54.53;;;12.90;99.90;;;;;;5030241;28;20202;-76
2022/10/14 06:29:05;;;;;;;60.10;56.10;;;12.90;99.90;;;;;;5029165;28;20221;-76
2022/10/14 06:31:31;;;;;;;49.80;46.50;;;12.90;99.90;;;;;;5030084;28;20182;-78
2022/10/14 06:33:57;;;;;;;37.90;34.70;;;12.90;99.90;;;;;;5029607;28;20206;-78
2022/10/14 06:36:23;;;;;;;21.27;19.07;;;12.90;99.90;;;;;;5030859;28;20202;-78
2022/10/14 06:38:48;;;;;;;18.80;16.73;;;12.90;99.90;;;;;;5030754;28;20201;-77
2022/10/14 06:41:14;;;;;;;23.87;21.57;;;12.90;99.90;;;;;;5030574;28;20293;-72
2022/10/14 06:43:40;;;;;;;34.40;31.50;;;13.00;99.90;;;;;;5029958;28;20253;-72
2022/10/14 06:46:06;;;;;;;45.70;42.57;;;13.00;99.90;;;;;;5030361;28;20605;-72
2022/10/14 06:48:32;;;;;;;62.37;57.97;;;13.00;99.90;;;;;;5028765;28;20609;-72
2022/10/14 06:50:59;;;;;;;62.20;57.93;;;13.00;99.90;;;;;;5030165;28;20285;-72
2022/10/14 06:53:26;;;;;;;49.90;46.50;;;13.00;99.90;;;;;;5029843;28;20210;-72
2022/10/14 06:56:00;;;;;;;24.63;22.40;;;13.10;99.90;;;;;;5030331;28;20799;-73
2022/10/14 06:58:26;;;;;;;19.83;17.83;;;13.10;99.90;;;;;;5029582;28;20178;-72
2022/10/14 07:00:52;;;;;;;16.63;15.03;;;13.20;99.90;;;;;;5030291;28;20255;-72
2022/10/14 07:03:18;;;;;;;17.27;14.30;;;13.30;99.90;;;;;;5030347;28;20207;-72
2022/10/14 07:05:44;;;;;;;20.90;18.10;;;13.30;99.90;;;;;;5030555;28;20175;-74
2022/10/14 07:08:10;;;;;;;98.70;91.60;;;13.40;99.90;;;;;;5033548;28;20236;-77
2022/10/14 07:10:36;;;;;;;217.20;204.33;;;13.40;99.90;;;;;;5034026;28;20667;-78
2022/10/14 07:13:02;;;;;;;167.57;157.70;;;13.50;99.90;;;;;;5032330;28;20223;-77
2022/10/14 07:15:28;;;;;;;112.23;105.13;;;13.50;99.90;;;;;;5033762;28;20265;-76
2022/10/14 07:17:54;;;;;;;109.40;102.57;;;13.60;99.90;;;;;;5031883;28;20317;-76
2022/10/14 07:20:19;;;;;;;171.70;161.17;;;13.80;99.90;;;;;;5033666;28;20187;-76
2022/10/14 07:22:45;;;;;;;127.30;119.70;;;13.90;99.90;;;;;;5031966;28;20635;-76
2022/10/14 07:25:11;;;;;;;35.73;32.93;;;14.00;99.90;;;;;;5032810;28;20183;-77
2022/10/14 07:27:37;;;;;;;15.60;13.97;;;14.10;99.90;;;;;;5037421;28;20674;-75
2022/10/14 07:30:05;;;;;;;19.53;14.57;;;14.20;99.90;;;;;;5038480;28;20178;-76
2022/10/14 07:32:30;;;;;;;18.70;15.60;;;14.20;99.90;;;;;;5037493;28;20195;-77
2022/10/14 07:34:56;;;;;;;19.87;17.63;;;14.30;99.90;;;;;;5033977;28;20995;-77
2022/10/14 07:37:22;;;;;;;20.30;18.40;;;14.30;99.90;;;;;;5036552;28;20189;-76
2022/10/14 07:39:48;;;;;;;15.83;14.33;;;14.30;99.90;;;;;;5038312;28;20179;-76
2022/10/14 07:42:14;;;;;;;21.00;16.83;;;14.30;99.90;;;;;;5034463;28;20185;-77
2022/10/14 07:44:40;;;;;;;21.50;19.17;;;14.40;99.90;;;;;;5032722;28;20290;-77
2022/10/14 07:47:06;;;;;;;22.13;20.10;;;14.50;99.90;;;;;;5033844;28;20179;-77
2022/10/14 07:49:32;;;;;;;36.23;33.10;;;14.60;99.90;;;;;;5033746;28;20179;-77
2022/10/14 07:51:58;;;;;;;25.00;22.70;;;14.60;99.90;;;;;;5033582;28;20194;-78
2022/10/14 07:54:25;;;;;;;45.93;42.90;;;14.70;99.90;;;;;;5038886;28;20593;-76
2022/10/14 07:56:51;;;;;;;98.47;92.67;;;14.80;99.90;;;;;;5033212;28;20351;-78
2022/10/14 07:59:19;;;;;;;140.03;132.17;;;14.90;99.90;;;;;;5033739;28;20261;-77
2022/10/14 08:01:46;;;;;;;141.13;132.93;;;14.90;99.90;;;;;;5032525;28;20189;-78
2022/10/14 08:04:12;;;;;;;98.37;92.50;;;15.10;99.90;;;;;;5033686;28;20234;-77
2022/10/14 08:06:38;;;;;;;64.27;60.43;;;15.40;99.90;;;;;;5033553;28;20206;-77
2022/10/14 08:09:05;;;;;;;36.93;34.47;;;15.50;99.90;;;;;;5032014;28;20210;-76
2022/10/14 08:11:30;;;;;;;17.63;13.97;;;15.70;99.90;;;;;;5033464;28;20202;-77
2022/10/14 08:13:58;;;;;;;56.73;53.33;;;15.80;99.90;;;;;;5032087;28;20215;-76
2022/10/14 08:16:29;;;;;;;45.33;42.60;;;15.80;99.90;;;;;;5033907;28;20183;-75
2022/10/14 08:18:57;;;;;;;16.63;12.27;;;15.90;99.90;;;;;;5034474;28;20554;-76
2022/10/14 08:21:23;;;;;;;16.07;14.60;;;16.00;99.90;;;;;;5041101;28;20179;-76
2022/10/14 08:23:50;;;;;;;29.03;26.67;;;16.00;99.90;;;;;;5030146;28;20219;-78
2022/10/14 08:26:52;;;;;;;46.03;43.13;;;16.10;99.90;;;;;;5028811;28;20179;-77
2022/10/14 08:29:18;;;;;;;54.43;50.83;;;16.30;99.90;;;;;;5013227;28;20199;-77
2022/10/14 08:31:44;;;;;;;86.47;81.63;;;16.50;99.90;;;;;;5032510;28;20185;-77
2022/10/14 08:34:10;;;;;;;10.97;9.97;;;16.80;99.90;;;;;;5031655;28;20207;-78
2022/10/14 08:36:36;;;;;;;23.30;21.60;;;16.90;99.90;;;;;;5032455;28;20209;-77
2022/10/14 08:39:04;;;;;;;23.53;21.93;;;16.80;99.90;;;;;;5030563;28;20226;-77
2022/10/14 08:41:38;;;;;;;31.17;28.93;;;16.70;99.90;;;;;;5032299;28;20191;-80
2022/10/14 08:44:24;;;;;;;30.10;28.03;;;16.70;99.90;;;;;;5030034;28;20210;-76
2022/10/14 08:46:59;;;;;;;33.50;31.27;;;16.70;99.90;;;;;;5028728;28;20647;-76
2022/10/14 08:49:53;;;;;;;34.40;32.30;;;16.70;99.90;;;;;;5032567;28;20263;-76
2022/10/14 08:52:29;;;;;;;26.30;24.07;;;16.60;99.90;;;;;;5025647;28;20187;-76
2022/10/14 08:55:01;;;;;;;45.53;42.93;;;16.40;99.90;;;;;;5031291;28;20658;-75
2022/10/14 08:57:33;;;;;;;21.47;19.77;;;16.20;99.90;;;;;;5030436;28;20211;-76
2022/10/14 08:59:59;;;;;;;34.23;31.40;;;16.10;99.90;;;;;;5031333;28;20239;-75
2022/10/14 09:02:39;;;;;;;48.17;45.23;;;16.00;99.90;;;;;;5031450;28;20195;-76
2022/10/14 09:05:05;;;;;;;48.23;45.40;;;16.00;99.90;;;;;;5030802;28;20190;-77
2022/10/14 09:07:33;;;;;;;50.80;47.73;;;16.00;99.90;;;;;;5031366;28;20183;-76
2022/10/14 09:10:10;;;;;;;51.03;48.00;;;16.00;99.90;;;;;;5030100;28;20264;-77
2022/10/14 09:12:38;;;;;;;42.60;39.63;;;16.00;99.90;;;;;;5030342;28;20309;-76
2022/10/14 09:15:15;;;;;;;53.63;50.67;;;16.10;99.90;;;;;;5031739;28;20183;-78
2022/10/14 09:18:03;;;;;;;42.70;39.97;;;16.10;99.90;;;;;;5030022;28;20228;-77
2022/10/14 09:20:29;;;;;;;31.87;29.47;;;16.20;99.90;;;;;;5022941;28;20545;-78
2022/10/14 09:23:21;;;;;;;37.60;34.77;;;16.40;99.90;;;;;;5030404;28;20273;-77
2022/10/14 09:25:57;;;;;;;25.93;24.07;;;16.60;99.90;;;;;;5029748;28;20210;-77
2022/10/14 09:28:36;;;;;;;46.53;43.57;;;16.70;99.90;;;;;;5030588;28;20643;-77
2022/10/14 09:31:04;;;;;;;42.90;40.23;;;16.70;99.90;;;;;;5030071;28;20194;-77
2022/10/14 09:33:30;;;;;;;40.53;37.93;;;16.80;99.90;;;;;;5031210;28;20199;-76
2022/10/14 09:35:57;;;;;;;12.33;11.10;;;16.90;99.90;;;;;;5014547;28;20191;-77
2022/10/14 09:38:24;;;;;;;8.93;8.03;;;16.90;99.90;;;;;;5020064;28;20186;-76
2022/10/14 09:40:54;;;;;;;9.30;8.50;;;16.90;99.90;;;;;;5031926;28;20179;-78
2022/10/14 09:43:23;;;;;;;10.03;8.13;;;16.90;99.90;;;;;;5030829;28;20305;-76
2022/10/14 09:45:51;;;;;;;10.00;8.03;;;17.00;99.90;;;;;;5030787;28;20175;-76
2022/10/14 09:48:31;;;;;;;9.40;8.73;;;17.00;99.90;;;;;;5028788;28;20252;-76
2022/10/14 09:51:01;;;;;;;14.30;13.33;;;17.10;99.90;;;;;;5029329;28;20189;-75
2022/10/14 09:53:29;;;;;;;13.03;11.83;;;17.10;99.90;;;;;;5029204;28;20273;-78
2022/10/14 09:56:00;;;;;;;21.03;19.40;;;17.10;99.90;;;;;;5019423;28;20188;-76
2022/10/14 09:58:54;;;;;;;20.90;19.23;;;17.10;99.90;;;;;;5024704;28;20179;-76
2022/10/14 10:01:40;;;;;;;28.73;26.90;;;17.10;99.90;;;;;;5029387;28;20186;-76
2022/10/14 10:04:31;;;;;;;29.07;27.27;;;17.10;99.90;;;;;;5033185;28;20210;-77
2022/10/14 10:06:58;;;;;;;41.17;38.67;;;17.20;99.90;;;;;;5030899;28;20182;-78
2022/10/14 10:09:25;;;;;;;39.10;36.60;;;17.20;99.90;;;;;;5029484;28;20527;-78
2022/10/14 10:11:51;;;;;;;44.17;41.80;;;17.30;99.90;;;;;;5034872;28;20214;-83
2022/10/14 10:14:22;;;;;;;55.47;52.43;;;17.40;99.90;;;;;;5036482;28;20246;-81
2022/10/14 10:16:50;;;;;;;48.63;45.73;;;17.70;99.90;;;;;;5034615;28;20193;-79
2022/10/14 10:19:28;;;;;;;38.37;36.00;;;18.00;99.90;;;;;;5035311;28;20703;-80
2022/10/14 10:22:13;;;;;;;27.93;25.80;;;18.40;99.90;;;;;;5035141;28;20190;-80
2022/10/14 10:24:39;;;;;;;13.60;12.47;;;18.70;99.90;;;;;;5031948;28;20228;-76
2022/10/14 10:27:30;;;;;;;14.03;12.73;;;18.90;99.90;;;;;;5030006;28;20170;-75
2022/10/14 10:29:55;;;;;;;14.30;13.13;;;18.90;99.90;;;;;;5029939;28;20191;-75
2022/10/14 10:32:28;;;;;;;11.73;10.83;;;18.80;99.90;;;;;;5019188;28;20326;-74
2022/10/14 10:35:00;;;;;;;14.10;12.97;;;18.80;99.90;;;;;;5028015;28;20218;-78
2022/10/14 10:37:27;;;;;;;17.03;15.73;;;18.90;99.90;;;;;;5029767;28;20258;-75
2022/10/14 10:40:17;;;;;;;15.93;14.13;;;19.20;99.90;;;;;;5031902;28;20261;-75
2022/10/14 10:42:50;;;;;;;13.93;12.70;;;19.20;99.90;;;;;;5033529;28;20638;-75
2022/10/14 10:45:43;;;;;;;13.03;12.03;;;19.30;99.90;;;;;;5034181;28;20179;-75
2022/10/14 10:48:22;;;;;;;12.37;11.27;;;19.30;99.90;;;;;;5013833;28;20183;-75
2022/10/14 10:50:48;;;;;;;16.30;15.03;;;19.10;99.90;;;;;;5014052;28;20180;-75
2022/10/14 10:53:22;;;;;;;17.20;16.07;;;18.90;99.90;;;;;;5013472;28;20761;-76
2022/10/14 10:55:53;;;;;;;17.07;15.97;;;18.70;99.90;;;;;;5012723;28;20274;-75
2022/10/14 10:58:20;;;;;;;17.73;16.63;;;18.60;99.90;;;;;;5023159;28;20273;-75
2022/10/14 11:01:01;;;;;;;16.70;15.23;;;18.60;99.90;;;;;;5032428;28;20175;-75
2022/10/14 11:03:54;;;;;;;18.03;16.53;;;18.70;99.90;;;;;;5033569;28;20210;-75
2022/10/14 11:12:38;;;;;;;16.53;15.43;;;19.10;99.90;;;;;;5041891;28;20225;-78
2022/10/14 11:15:19;;;;;;;14.83;13.63;;;19.30;99.90;;;;;;5049605;28;20609;-78
2022/10/14 11:17:52;;;;;;;12.07;10.87;;;19.60;99.90;;;;;;5043705;28;20207;-78
2022/10/14 11:20:55;;;;;;;12.40;11.40;;;19.60;99.90;;;;;;5041916;28;20179;-78
2022/10/14 11:23:58;;;;;;;10.27;9.47;;;19.90;99.90;;;;;;5038062;28;20215;-77
2022/10/14 11:26:46;;;;;;;10.43;8.30;;;20.40;99.90;;;;;;5040082;28;20178;-79
2022/10/14 11:29:21;;;;;;;7.93;7.17;;;21.00;99.90;;;;;;5035353;28;20187;-77
2022/10/14 11:31:58;;;;;;;8.27;7.57;;;21.00;99.90;;;;;;5033194;28;20182;-77
2022/10/14 11:34:31;;;;;;;8.40;7.60;;;20.70;99.90;;;;;;5021845;28;20215;-77
2022/10/14 11:37:27;;;;;;;7.60;6.87;;;20.50;99.90;;;;;;5016542;28;20184;-78
2022/10/14 11:40:13;;;;;;;7.57;6.97;;;20.40;99.90;;;;;;5019942;28;20210;-78
2022/10/14 11:42:51;;;;;;;9.97;7.50;;;20.40;99.90;;;;;;5013967;28;20203;-77
2022/10/14 11:45:34;;;;;;;6.87;6.33;;;20.20;99.90;;;;;;5022736;28;20180;-79
2022/10/14 11:48:19;;;;;;;8.57;7.43;;;20.00;99.90;;;;;;5030633;28;20202;-78
2022/10/14 11:50:49;;;;;;;10.60;8.20;;;19.70;99.90;;;;;;5042776;28;20250;-79
2022/10/14 11:53:36;;;;;;;9.73;8.27;;;19.60;99.90;;;;;;5037213;28;20206;-80
2022/10/14 11:56:11;;;;;;;8.20;7.50;;;19.50;99.90;;;;;;5040076;28;20274;-80
2022/10/14 11:58:38;;;;;;;10.07;9.17;;;19.20;99.90;;;;;;5041866;28;20187;-80
2022/10/14 12:01:12;;;;;;;16.00;14.60;;;19.00;99.90;;;;;;5040891;28;20281;-80
2022/10/14 12:03:57;;;;;;;29.17;27.57;;;18.70;99.90;;;;;;5046095;28;20281;-80
2022/10/14 12:06:55;;;;;;;15.43;14.30;;;18.40;99.90;;;;;;5039717;28;20175;-80
2022/10/14 12:09:30;;;;;;;22.03;20.50;;;18.30;99.90;;;;;;5040815;28;20202;-80
2022/10/14 12:12:04;;;;;;;166.37;157.37;;;18.00;99.90;;;;;;5043392;28;20205;-79
2022/10/14 12:14:44;;;;;;;123.83;117.27;;;17.80;99.90;;;;;;5046581;28;20202;-79
2022/10/14 12:17:18;;;;;;;43.07;40.50;;;17.70;99.90;;;;;;5045213;28;20182;-79
2022/10/14 12:19:44;;;;;;;38.93;36.20;;;17.70;99.90;;;;;;5043778;28;20237;-79
2022/10/14 12:22:28;;;;;;;19.73;17.87;;;17.70;99.90;;;;;;5044862;28;20183;-79
2022/10/14 12:24:56;;;;;;;25.40;23.43;;;17.80;99.90;;;;;;5043902;28;20301;-79
2022/10/14 12:27:25;;;;;;;11.43;10.53;;;17.80;99.90;;;;;;5038131;28;20266;-79
2022/10/14 12:29:54;;;;;;;12.53;11.70;;;18.00;99.90;;;;;;5017552;28;20188;-79
2022/10/14 12:32:23;;;;;;;16.13;14.93;;;18.20;99.90;;;;;;5016983;28;20175;-79
2022/10/14 12:35:00;;;;;;;15.87;14.60;;;18.50;99.90;;;;;;5018861;28;20191;-79
2022/10/14 12:37:36;;;;;;;23.37;21.63;;;18.80;99.90;;;;;;5018929;28;20183;-79
2022/10/14 12:40:02;;;;;;;66.80;63.23;;;19.00;99.90;;;;;;5039109;28;20186;-79
2022/10/14 12:43:01;;;;;;;82.73;78.13;;;19.40;99.90;;;;;;5039104;28;20225;-79
2022/10/14 12:45:29;;;;;;;14.77;13.87;;;19.60;99.90;;;;;;5034287;28;20221;-80
2022/10/14 12:48:04;;;;;;;8.70;7.43;;;19.80;99.90;;;;;;5037734;28;20194;-79
2022/10/14 12:50:36;;;;;;;8.80;8.13;;;19.60;99.90;;;;;;5048669;28;20188;-79
2022/10/14 12:53:33;;;;;;;12.33;11.33;;;19.70;99.90;;;;;;5051740;28;20267;-78